Quicksburg, Virginia
Current Conditions -  °F | °C
As of 9:15 AM on Friday 19 Dec 2014 (Local Time) from K8W2 Reporting Station
Broken Clouds Broken Clouds  
Wind Chill: 32°   Ceiling: 3100
Heat Index: 32°   Visibility: 10mi
Dew Point: 25°   Wind: 3mph
Humidity: 75%   Direction: 90°E
Pressure: 30.16"   Gusts: NA
Location:  38.69°N, 78.68°W
Report Text: K8W2 191415Z AUTO 09003KT 10SM BKN031 00/M04 A3016 RMK AO1 T00011038
Loading
Personal Weather Stations






























Interactive Weather Map New forecast layout! Learn more

10-Day Weather Forecast

Advertisements
Track Severe Weather on mobile